Time;durP1;ratioP1;P1;durP2;ratioP2;P2;SDS_P1;SDS_P2;PMS_P1;PMS_P2;Temp;Humidity;BMP_temperature;BMP_pressure;BME280_temperature;BME280_humidity;BME280_pressure;Samples;Min_cycle;Max_cycle;Signal;HPM_P1;HPM_P2
2022/02/12 00:01:28;;;;;;;21.82;12.47;;;;;;;2.16;78.90;101698.46;2085584;85;33840;-66
2022/02/12 00:04:30;;;;;;;25.08;13.00;;;;;;;2.13;78.86;101704.62;2198911;80;30145;-66
2022/02/12 00:07:33;;;;;;;21.82;12.37;;;;;;;2.10;78.85;101707.23;2201758;80;27690;-66
2022/02/12 00:10:36;;;;;;;30.00;12.75;;;;;;;2.09;78.83;101707.23;2221264;80;27620;-67
2022/02/12 00:13:38;;;;;;;26.00;13.20;;;;;;;2.09;78.78;101707.23;2224819;80;31061;-67
2022/02/12 00:16:40;;;;;;;26.62;13.08;;;;;;;2.09;78.82;101716.03;2229563;79;33024;-67
2022/02/12 00:19:42;;;;;;;27.20;12.75;;;;;;;2.11;78.84;101717.39;2217016;79;30101;-68
2022/02/12 00:22:44;;;;;;;22.05;12.20;;;;;;;2.13;78.72;101714.33;2200347;80;28429;-66
2022/02/12 00:25:47;;;;;;;27.13;12.47;;;;;;;2.13;78.71;101708.58;2201017;79;28702;-66
2022/02/12 00:28:48;;;;;;;24.10;12.25;;;;;;;2.13;78.68;101714.33;2172656;80;32004;-68
2022/02/12 00:31:50;;;;;;;21.07;10.25;;;;;;;2.13;78.57;101719.16;2200269;79;33038;-66
2022/02/12 00:34:52;;;;;;;22.15;10.90;;;;;;;2.11;78.44;101718.70;2200600;80;29338;-66
2022/02/12 00:37:54;;;;;;;21.50;10.90;;;;;;;2.10;78.59;101720.45;2200014;80;27750;-66
2022/02/12 00:40:56;;;;;;;22.52;11.57;;;;;;;2.10;78.61;101731.02;2201053;80;28041;-67
2022/02/12 00:43:59;;;;;;;25.35;12.23;;;;;;;2.11;78.58;101731.92;2200584;79;31010;-67
2022/02/12 00:47:03;;;;;;;22.67;11.53;;;;;;;2.12;78.59;101744.27;2200793;80;33037;-67
2022/02/12 00:50:07;;;;;;;18.73;11.20;;;;;;;2.12;78.63;101751.75;2200830;79;29342;-66
2022/02/12 00:53:09;;;;;;;21.55;11.78;;;;;;;2.12;78.56;101754.39;2199632;80;27688;-67
2022/02/12 00:56:10;;;;;;;19.75;12.05;;;;;;;2.11;78.55;101755.72;2200719;80;28294;-66
2022/02/12 00:59:12;;;;;;;20.27;11.28;;;;;;;2.09;78.58;101767.58;2200572;80;31808;-66
2022/02/12 01:02:14;;;;;;;21.05;10.93;;;;;;;2.09;78.48;101775.96;2200023;80;33969;-67
2022/02/12 01:05:16;;;;;;;20.88;11.48;;;;;;;2.07;78.42;101780.34;2200278;80;29360;-67
2022/02/12 01:08:19;;;;;;;24.57;12.07;;;;;;;2.03;78.36;101774.16;2199895;80;27673;-66
2022/02/12 01:11:21;;;;;;;19.45;11.10;;;;;;;2.02;78.42;101778.98;2200149;80;29345;-64
2022/02/12 01:14:23;;;;;;;21.10;10.65;;;;;;;2.01;78.36;101783.82;2200398;80;31203;-65
2022/02/12 01:17:26;;;;;;;25.17;11.90;;;;;;;2.03;78.49;101786.05;2204158;79;33747;-66
2022/02/12 01:20:28;;;;;;;22.27;12.13;;;;;;;2.02;78.35;101789.98;2209886;80;30111;-65
2022/02/12 01:23:30;;;;;;;18.35;10.20;;;;;;;2.00;78.15;101797.91;2224624;80;27612;-68
2022/02/12 01:26:32;;;;;;;23.52;11.18;;;;;;;1.94;77.95;101804.02;2225461;80;28667;-67
2022/02/12 01:29:34;;;;;;;17.05;10.40;;;;;;;1.86;77.82;101804.36;2223357;80;31021;-67
2022/02/12 01:32:36;;;;;;;23.73;10.20;;;;;;;1.77;77.74;101800.30;2200405;80;32921;-66
2022/02/12 01:35:38;;;;;;;19.20;9.45;;;;;;;1.66;77.67;101806.78;2200548;80;29313;-66
2022/02/12 01:38:39;;;;;;;21.35;9.78;;;;;;;1.57;77.55;101822.53;2200781;80;27675;-66
2022/02/12 01:41:41;;;;;;;20.15;9.53;;;;;;;1.43;77.52;101829.83;2200618;80;28782;-66
2022/02/12 01:44:44;;;;;;;17.27;8.78;;;;;;;1.31;77.44;101833.63;2200813;80;31151;-66
2022/02/12 01:47:45;;;;;;;24.05;9.05;;;;;;;1.17;77.40;101830.37;2200778;80;33759;-67
2022/02/12 01:50:52;;;;;;;14.65;8.30;;;;;;;1.05;77.37;101839.00;2200628;80;29335;-67
2022/02/12 01:53:54;;;;;;;18.42;7.45;;;;;;;0.97;77.46;101848.98;2205742;80;27517;-67
2022/02/12 01:57:00;;;;;;;19.10;8.63;;;;;;;0.90;77.60;101857.23;2200678;80;28679;-66
2022/02/12 02:00:06;;;;;;;20.85;9.55;;;;;;;0.83;77.66;101854.94;2199111;80;31165;-65
2022/02/12 02:03:08;;;;;;;14.35;8.08;;;;;;;0.75;77.60;101868.00;2191440;81;34313;-67
2022/02/12 02:06:10;;;;;;;22.58;9.38;;;;;;;0.69;77.52;101883.72;2191620;81;29342;-67
2022/02/12 02:09:12;;;;;;;19.10;9.03;;;;;;;0.59;77.52;101885.75;2191766;81;27647;-67
2022/02/12 02:12:14;;;;;;;19.15;9.35;;;;;;;0.50;77.54;101890.44;2192699;80;28649;-67
2022/02/12 02:15:16;;;;;;;17.50;9.05;;;;;;;0.40;77.51;101897.28;2191507;81;31335;-66
2022/02/12 02:18:18;;;;;;;16.35;8.40;;;;;;;0.32;77.57;101894.95;2195570;80;32955;-66
2022/02/12 02:21:20;;;;;;;22.17;9.00;;;;;;;0.25;77.72;101906.23;2195687;80;30138;-66
2022/02/12 02:24:22;;;;;;;15.70;8.78;;;;;;;0.18;77.79;101910.50;2194254;80;27707;-67
2022/02/12 02:27:28;;;;;;;16.70;8.83;;;;;;;0.11;77.84;101917.39;2195789;80;28669;-66
2022/02/12 02:30:27;;;;;;;29.05;10.88;;;;;;;0.02;77.76;101916.33;2221202;79;31244;-66
2022/02/12 02:33:29;;;;;;;13.90;9.18;;;;;;;-0.07;77.79;101911.75;2189042;81;33028;-67
2022/02/12 02:36:32;;;;;;;20.48;9.33;;;;;;;-0.16;77.85;101912.45;2188514;81;30069;-67
2022/02/12 02:39:35;;;;;;;18.50;8.90;;;;;;;-0.21;77.96;101913.68;2170549;81;27612;-67
2022/02/12 02:42:37;;;;;;;16.82;8.63;;;;;;;-0.26;77.99;101915.77;2119397;84;28618;-68
2022/02/12 02:45:38;;;;;;;18.25;8.78;;;;;;;-0.33;78.02;101924.83;2196608;81;31832;-67
2022/02/12 02:48:40;;;;;;;20.45;10.13;;;;;;;-0.39;78.03;101930.40;2159964;82;33940;-67
2022/02/12 02:55:59;;;;;;;30.30;10.70;;;;;;;-0.51;78.04;101937.59;2159926;82;27693;-67
2022/02/12 02:58:07;;;;;;;19.98;9.98;;;;;;;-0.58;78.09;101939.63;2159758;82;33061;-67
2022/02/12 03:01:17;;;;;;;20.77;10.18;;;;;;;-0.64;78.04;101946.94;2119891;82;31895;-66
2022/02/12 03:04:21;;;;;;;21.23;9.58;;;;;;;-0.71;78.01;101952.92;2121012;82;32998;-66
2022/02/12 03:07:23;;;;;;;19.67;9.98;;;;;;;-0.78;78.03;101952.77;2197750;81;29409;-66
2022/02/12 03:10:25;;;;;;;26.93;11.25;;;;;;;-0.86;78.06;101953.03;2179082;81;28108;-66
2022/02/12 03:13:27;;;;;;;19.17;10.28;;;;;;;-0.92;78.07;101959.44;2184154;81;28815;-68
2022/02/12 03:16:29;;;;;;;19.37;9.43;;;;;;;-0.99;78.10;101963.66;2197706;81;31216;-67
2022/02/12 03:19:30;;;;;;;22.60;10.45;;;;;;;-1.05;78.18;101966.13;2131163;82;32950;-67
2022/02/12 03:22:32;;;;;;;19.40;9.93;;;;;;;-1.10;78.24;101976.53;2161184;82;30524;-66
2022/02/12 03:25:34;;;;;;;19.80;9.35;;;;;;;-1.15;78.28;101974.20;2119268;84;27692;-67
2022/02/12 03:28:36;;;;;;;16.45;8.53;;;;;;;-1.19;78.32;101976.72;2162461;81;28726;-67
2022/02/12 03:31:38;;;;;;;18.77;9.35;;;;;;;-1.25;78.33;101978.36;2119418;84;31075;-67
2022/02/12 03:34:40;;;;;;;18.67;9.15;;;;;;;-1.29;78.38;101983.47;2161901;82;32954;-67
2022/02/12 03:37:43;;;;;;;23.42;9.25;;;;;;;-1.33;78.41;101983.83;2119938;82;29379;-67
2022/02/12 03:40:48;;;;;;;20.43;9.18;;;;;;;-1.40;78.41;101988.03;2172272;81;27668;-66
2022/02/12 03:43:50;;;;;;;20.62;9.13;;;;;;;-1.44;78.46;101994.48;2175061;81;28623;-67
2022/02/12 03:46:51;;;;;;;24.30;10.03;;;;;;;-1.50;78.48;102001.78;2174990;81;31081;-65
2022/02/12 03:49:53;;;;;;;27.15;10.85;;;;;;;-1.55;78.52;102004.70;2161624;81;33126;-65
2022/02/12 03:52:55;;;;;;;23.70;9.88;;;;;;;-1.58;78.60;102004.61;2158334;81;29324;-65
2022/02/12 03:55:57;;;;;;;25.52;10.20;;;;;;;-1.63;78.62;102003.16;2158651;81;27570;-66
2022/02/12 03:59:00;;;;;;;25.85;10.15;;;;;;;-1.67;78.65;102003.92;2158206;82;29463;-65
2022/02/12 04:02:03;;;;;;;19.55;9.03;;;;;;;-1.72;78.72;102002.89;2155319;81;31849;-65
2022/02/12 04:05:06;;;;;;;28.25;11.50;;;;;;;-1.76;78.70;102010.23;2124064;82;33102;-65
2022/02/12 04:08:08;;;;;;;31.82;11.43;;;;;;;-1.80;78.79;102022.38;2087831;85;29420;-67
2022/02/12 04:11:09;;;;;;;24.27;10.10;;;;;;;-1.82;78.87;102031.06;2087913;85;28230;-67
2022/02/12 04:14:11;;;;;;;21.65;9.40;;;;;;;-1.85;78.90;102031.88;2088183;83;28643;-67
2022/02/12 04:17:13;;;;;;;20.82;10.00;;;;;;;-1.86;78.95;102033.59;2087867;85;31124;-67
2022/02/12 04:20:18;;;;;;;21.00;9.05;;;;;;;-1.90;78.96;102033.03;2097810;83;32816;-65
2022/02/12 04:23:20;;;;;;;22.73;8.65;;;;;;;-1.91;78.97;102041.78;2125485;83;29516;-66
2022/02/12 04:26:22;;;;;;;22.40;9.25;;;;;;;-1.95;79.01;102038.59;2124576;83;27723;-67
2022/02/12 04:29:23;;;;;;;20.75;9.33;;;;;;;-1.97;79.07;102038.95;2123865;83;28623;-67
2022/02/12 04:32:25;;;;;;;21.37;8.93;;;;;;;-2.00;79.05;102050.67;2124724;83;30997;-66
2022/02/12 04:35:27;;;;;;;18.80;8.60;;;;;;;-2.03;79.11;102049.27;2123716;83;33837;-67
2022/02/12 04:38:29;;;;;;;21.17;7.80;;;;;;;-2.04;79.10;102052.73;2124817;83;29356;-68
2022/02/12 04:41:31;;;;;;;24.72;8.65;;;;;;;-2.06;79.15;102049.16;2123765;83;27626;-68
2022/02/12 04:44:32;;;;;;;16.75;8.95;;;;;;;-2.08;79.18;102052.19;2125107;82;28766;-67
2022/02/12 04:47:36;;;;;;;19.82;8.23;;;;;;;-2.09;79.23;102049.97;2089805;83;31015;-65
2022/02/12 04:50:38;;;;;;;22.60;8.55;;;;;;;-2.12;79.26;102049.00;2109124;84;32983;-65
2022/02/12 04:53:39;;;;;;;18.65;9.20;;;;;;;-2.15;79.25;102042.80;2087909;85;30254;-67
2022/02/12 04:56:41;;;;;;;23.35;9.10;;;;;;;-2.17;79.29;102040.55;2112441;83;27693;-66
2022/02/12 04:59:43;;;;;;;24.18;8.88;;;;;;;-2.21;79.24;102038.66;2123958;83;28689;-68
2022/02/12 05:02:46;;;;;;;21.40;8.88;;;;;;;-2.21;79.33;102048.28;2136444;82;31016;-68
2022/02/12 05:05:48;;;;;;;22.62;8.48;;;;;;;-2.23;79.36;102051.28;2157911;82;33067;-66
2022/02/12 05:08:50;;;;;;;24.25;8.70;;;;;;;-2.24;79.37;102052.12;2155732;82;29368;-69
2022/02/12 05:11:51;;;;;;;17.25;7.95;;;;;;;-2.26;79.40;102049.86;2086453;85;27636;-67
2022/02/12 05:14:54;;;;;;;20.77;8.60;;;;;;;-2.28;79.41;102044.58;2122017;83;28601;-68
2022/02/12 05:17:55;;;;;;;24.47;8.68;;;;;;;-2.31;79.39;102040.10;2137747;83;31214;-68
2022/02/12 05:20:57;;;;;;;19.25;8.20;;;;;;;-2.32;79.39;102043.60;2150834;81;32965;-70
2022/02/12 05:24:00;;;;;;;20.27;8.55;;;;;;;-2.34;79.46;102043.97;2145526;83;29337;-67
2022/02/12 05:27:01;;;;;;;19.77;8.53;;;;;;;-2.34;79.52;102050.94;2159299;82;27619;-67
2022/02/12 05:30:04;;;;;;;14.60;7.85;;;;;;;-2.34;79.54;102057.49;2159203;82;28867;-67
2022/02/12 05:33:06;;;;;;;19.30;8.78;;;;;;;-2.35;79.46;102058.34;2131491;82;31021;-65
2022/02/12 05:36:10;;;;;;;20.77;8.28;;;;;;;-2.38;79.45;102055.20;2157778;82;33001;-68
2022/02/12 05:39:12;;;;;;;27.30;9.88;;;;;;;-2.40;79.49;102063.45;2158729;82;29329;-67
2022/02/12 05:42:14;;;;;;;21.85;9.08;;;;;;;-2.41;79.55;102072.16;2157688;82;27714;-66
2022/02/12 05:45:15;;;;;;;21.35;8.78;;;;;;;-2.46;79.46;102070.70;2158618;82;28648;-67
2022/02/12 05:48:17;;;;;;;29.27;12.60;;;;;;;-2.48;79.38;102075.44;2158217;82;31004;-66
2022/02/12 05:51:21;;;;;;;27.00;12.90;;;;;;;-2.51;79.42;102079.27;2157267;82;33710;-67
2022/02/12 05:54:22;;;;;;;30.68;12.70;;;;;;;-2.54;79.51;102071.29;2157024;82;29366;-65
2022/02/12 05:57:24;;;;;;;19.52;10.50;;;;;;;-2.57;79.47;102068.16;2156571;81;27668;-66
2022/02/12 06:00:28;;;;;;;29.35;11.10;;;;;;;-2.57;79.47;102073.80;2162019;82;28799;-66
2022/02/12 06:03:29;;;;;;;22.20;11.00;;;;;;;-2.61;79.37;102086.81;2093888;83;30470;-67
2022/02/12 06:06:32;;;;;;;25.23;9.25;;;;;;;-2.63;79.39;102087.18;2103713;84;33817;-66
2022/02/12 06:09:34;;;;;;;19.92;8.83;;;;;;;-2.65;79.43;102093.23;2184750;81;29328;-65
2022/02/12 06:12:36;;;;;;;23.22;10.35;;;;;;;-2.66;79.52;102088.81;2172520;81;27691;-66
2022/02/12 06:15:39;;;;;;;20.48;9.30;;;;;;;-2.66;79.58;102088.81;2112198;83;28832;-66
2022/02/12 06:18:42;;;;;;;21.48;9.33;;;;;;;-2.66;79.61;102102.84;2169117;81;31836;-68
2022/02/12 06:21:44;;;;;;;23.45;7.87;;;;;;;-2.65;79.58;102108.56;2184441;81;33021;-67
2022/02/12 06:24:45;;;;;;;21.90;8.00;;;;;;;-2.64;79.58;102101.57;2170412;81;29363;-67
2022/02/12 06:27:47;;;;;;;17.15;7.95;;;;;;;-2.62;79.64;102106.45;2150252;81;28242;-66
2022/02/12 06:30:49;;;;;;;17.95;8.08;;;;;;;-2.61;79.59;102111.74;2149976;81;29456;-65
2022/02/12 06:33:52;;;;;;;14.15;7.08;;;;;;;-2.58;79.51;102123.19;2150412;82;31002;-64
2022/02/12 06:36:54;;;;;;;16.12;7.25;;;;;;;-2.57;79.48;102119.32;2164497;81;33393;-68
2022/02/12 06:39:57;;;;;;;13.55;6.50;;;;;;;-2.54;79.53;102122.45;2133013;82;29300;-67
2022/02/12 06:43:01;;;;;;;19.77;7.35;;;;;;;-2.51;79.52;102125.19;2124625;83;27633;-67
2022/02/12 06:46:02;;;;;;;23.83;7.45;;;;;;;-2.49;79.55;102130.08;2124408;83;29546;-65
2022/02/12 06:49:04;;;;;;;26.95;9.18;;;;;;;-2.46;79.58;102136.31;2124416;82;31233;-65
2022/02/12 06:52:06;;;;;;;30.43;10.03;;;;;;;-2.41;79.62;102135.58;2123637;83;33733;-66
2022/02/12 06:55:11;;;;;;;27.25;10.45;;;;;;;-2.36;79.70;102140.54;2123284;83;29335;-69
2022/02/12 06:58:13;;;;;;;25.57;11.22;;;;;;;-2.30;79.79;102145.57;2164571;81;27645;-67
2022/02/12 07:01:14;;;;;;;26.50;10.20;;;;;;;-2.21;79.88;102146.73;2150479;82;28863;-67
2022/02/12 07:04:16;;;;;;;26.23;9.40;;;;;;;-2.12;79.96;102145.70;2160340;82;31624;-67
2022/02/12 07:07:18;;;;;;;22.70;9.33;;;;;;;-2.02;79.99;102150.84;2198018;81;33962;-67
2022/02/12 07:10:21;;;;;;;27.20;9.68;;;;;;;-1.90;80.14;102162.17;2197803;81;29627;-68
2022/02/12 07:13:22;;;;;;;18.80;8.55;;;;;;;-1.76;80.20;102168.75;2197989;81;27722;-66
2022/02/12 07:16:24;;;;;;;27.13;8.03;;;;;;;-1.63;80.21;102175.69;2181448;81;29416;-67
2022/02/12 07:19:26;;;;;;;20.48;8.33;;;;;;;-1.51;80.27;102181.76;2162150;82;32462;-67
2022/02/12 07:22:28;;;;;;;17.37;7.92;;;;;;;-1.41;80.26;102177.27;2162434;81;32944;-66
2022/02/12 07:25:29;;;;;;;17.67;7.62;;;;;;;-1.30;80.23;102186.77;2162199;81;30162;-64
2022/02/12 07:28:31;;;;;;;22.52;9.58;;;;;;;-1.20;80.30;102188.84;2161264;82;27708;-66
2022/02/12 07:31:33;;;;;;;28.23;10.85;;;;;;;-1.09;80.30;102193.11;2123045;83;28628;-75
2022/02/12 07:34:35;;;;;;;31.42;13.70;;;;;;;-0.88;80.52;102194.14;2189633;80;31808;-76
2022/02/12 07:37:42;;;;;;;26.95;11.38;;;;;;;-0.63;80.56;102190.86;2163124;81;32917;-77
2022/02/12 07:40:44;;;;;;;30.97;11.20;;;;;;;-0.28;80.63;102201.89;2162574;82;29335;-78
2022/02/12 07:43:45;;;;;;;29.18;9.65;;;;;;;0.20;80.71;102204.38;2162373;82;27750;-77
2022/02/12 07:46:47;;;;;;;22.52;9.55;;;;;;;0.68;80.37;102202.86;2162752;82;28645;-78
2022/02/12 07:49:49;;;;;;;17.17;7.58;;;;;;;1.14;80.20;102201.62;2139870;82;31906;-78
2022/02/12 07:52:51;;;;;;;17.82;8.60;;;;;;;1.56;79.67;102192.74;2123192;83;33873;-77
2022/02/12 07:55:53;;;;;;;23.67;8.90;;;;;;;1.99;79.34;102194.38;2162951;82;29333;-82
2022/02/12 07:58:55;;;;;;;18.50;8.05;;;;;;;2.37;78.73;102194.07;2188093;80;27623;-80
2022/02/12 08:01:57;;;;;;;17.35;8.28;;;;;;;2.76;78.48;102206.52;2178256;79;28610;-79
2022/02/12 08:04:58;;;;;;;20.57;8.75;;;;;;;3.09;78.07;102202.12;2197922;80;31435;-78
2022/02/12 08:08:04;;;;;;;21.05;8.73;;;;;;;3.44;77.59;102195.44;2220499;80;33158;-82
2022/02/12 08:11:35;;;;;;;22.93;9.03;;;;;;;3.82;77.30;102191.38;2212632;80;29337;-78
2022/02/12 08:14:28;;;;;;;18.73;8.68;;;;;;;4.16;76.93;102192.57;2158157;82;27803;-83
2022/02/12 08:17:30;;;;;;;20.55;8.23;;;;;;;4.51;76.44;102193.25;2183077;81;29525;-80
2022/02/12 08:20:35;;;;;;;14.38;8.05;;;;;;;4.75;75.99;102188.95;2159607;82;31061;-82
2022/02/12 08:23:37;;;;;;;20.55;8.63;;;;;;;4.97;75.62;102191.26;2135088;81;32929;-81
2022/02/12 08:26:38;;;;;;;21.35;8.65;;;;;;;5.18;75.40;102184.26;2155290;82;30078;-79
2022/02/12 08:29:43;;;;;;;17.10;7.95;;;;;;;5.36;75.10;102193.17;2156112;82;27698;-77
2022/02/12 08:32:44;;;;;;;17.53;7.30;;;;;;;5.48;74.81;102194.52;2191461;81;28807;-78
2022/02/12 08:35:46;;;;;;;20.23;8.90;;;;;;;5.57;74.47;102202.54;2191507;81;31163;-76
2022/02/12 08:38:48;;;;;;;17.92;8.00;;;;;;;5.60;74.00;102204.30;2191583;81;32396;-78
2022/02/12 08:41:51;;;;;;;12.58;6.65;;;;;;;5.55;73.84;102201.64;2196424;80;30069;-78
2022/02/12 08:44:52;;;;;;;15.08;7.35;;;;;;;5.47;73.18;102206.04;2218386;80;27649;-79
2022/02/12 08:47:54;;;;;;;16.50;8.03;;;;;;;5.35;73.24;102208.67;2215636;80;28633;-83
2022/02/12 08:50:56;;;;;;;16.95;8.23;;;;;;;5.24;73.14;102210.86;2196123;80;31064;-82
2022/02/12 08:53:57;;;;;;;14.70;6.33;;;;;;;5.08;72.69;102207.25;2195473;81;33738;-81
2022/02/12 08:56:59;;;;;;;17.57;7.20;;;;;;;4.87;72.68;102205.39;2195398;81;29486;-80
2022/02/12 09:00:02;;;;;;;15.95;7.05;;;;;;;4.77;72.98;102208.44;2193919;81;27639;-80
2022/02/12 09:03:03;;;;;;;15.20;6.83;;;;;;;4.69;72.69;102214.16;2164696;81;28666;-79
2022/02/12 09:06:05;;;;;;;13.58;5.87;;;;;;;4.58;72.55;102212.76;2159937;82;31120;-79
2022/02/12 09:09:13;;;;;;;17.85;7.87;;;;;;;4.44;72.43;102218.42;2159967;82;33092;-80
2022/02/12 09:12:12;;;;;;;18.50;8.00;;;;;;;4.38;72.57;102215.29;2159741;81;29318;-81
2022/02/12 09:15:14;;;;;;;16.40;7.35;;;;;;;4.28;72.36;102217.41;2160473;81;27787;-80
2022/02/12 09:18:16;;;;;;;14.78;6.83;;;;;;;4.31;72.94;102220.95;2160328;82;28800;-80
2022/02/12 09:21:18;;;;;;;17.90;6.60;;;;;;;4.31;72.67;102222.73;2159991;82;31215;-80
2022/02/12 09:24:20;;;;;;;16.40;7.03;;;;;;;4.34;72.52;102224.97;2159744;81;33179;-79
2022/02/12 09:27:22;;;;;;;16.60;7.47;;;;;;;4.37;72.35;102218.81;2163553;81;29337;-77
2022/02/12 09:30:23;;;;;;;15.93;7.37;;;;;;;4.40;72.25;102217.06;2175484;81;27699;-80
2022/02/12 09:33:25;;;;;;;15.00;6.95;;;;;;;4.41;72.18;102217.94;2176333;81;28780;-79
2022/02/12 09:36:27;;;;;;;20.77;7.37;;;;;;;4.48;72.24;102221.52;2152933;81;31177;-79
2022/02/12 09:39:30;;;;;;;15.63;6.97;;;;;;;4.48;72.22;102226.41;2163612;81;32875;-80
2022/02/12 09:42:32;;;;;;;13.70;7.47;;;;;;;4.50;72.09;102223.75;2160436;81;29374;-79
2022/02/12 09:45:44;;;;;;;18.62;7.85;;;;;;;4.56;71.86;102224.67;2140226;81;27801;-77
2022/02/12 09:48:47;;;;;;;20.92;7.75;;;;;;;4.67;71.97;102226.53;2165618;81;28861;-79
2022/02/12 09:51:51;;;;;;;20.55;8.48;;;;;;;4.79;71.57;102223.94;2159955;81;31028;-78
2022/02/12 09:54:53;;;;;;;25.55;8.63;;;;;;;4.90;71.63;102223.09;2160234;82;33771;-80
2022/02/12 09:57:54;;;;;;;27.40;7.97;;;;;;;5.01;71.53;102235.55;2159321;82;29378;-79
2022/02/12 10:00:56;;;;;;;14.38;6.55;;;;;;;5.16;71.14;102230.77;2160755;81;27503;-80
2022/02/12 10:03:58;;;;;;;28.70;10.58;;;;;;;5.19;70.72;102232.53;2159476;81;28615;-78
2022/02/12 10:06:59;;;;;;;25.08;9.50;;;;;;;5.21;70.91;102233.43;2162779;82;31267;-81
2022/02/12 10:10:17;;;;;;;22.60;9.80;;;;;;;5.27;70.81;102233.89;2162348;82;32379;-81
2022/02/12 10:13:24;;;;;;;17.82;7.15;;;;;;;5.28;70.46;102233.92;2162574;82;29350;-80
2022/02/12 10:16:28;;;;;;;20.72;9.18;;;;;;;5.26;69.80;102230.78;2162553;81;27720;-77
2022/02/12 10:19:34;;;;;;;19.17;9.13;;;;;;;5.19;69.93;102225.02;2138739;81;29455;-72
2022/02/12 10:22:38;;;;;;;15.48;7.78;;;;;;;5.14;69.64;102220.99;2152582;81;30383;-71
2022/02/12 10:25:46;;;;;;;13.58;5.62;;;;;;;5.11;69.33;102221.00;2118989;83;33640;-72
2022/02/12 10:28:48;;;;;;;11.55;4.95;;;;;;;5.13;69.25;102210.82;2121372;83;29557;-72
2022/02/12 10:31:49;;;;;;;13.32;4.25;;;;;;;5.20;68.89;102198.90;2108556;83;27694;-74
2022/02/12 10:34:53;;;;;;;11.63;5.08;;;;;;;5.23;68.17;102198.45;2159529;82;28759;-74
2022/02/12 10:38:02;;;;;;;12.65;5.17;;;;;;;5.28;68.38;102198.05;2147996;81;30435;-71
2022/02/12 10:41:14;;;;;;;14.45;5.10;;;;;;;5.30;68.28;102192.27;2163402;81;33108;-76
2022/02/12 10:44:16;;;;;;;11.75;5.78;;;;;;;5.29;67.82;102188.28;2119273;83;29334;-71
2022/02/12 10:47:19;;;;;;;50.05;31.05;;;;;;;5.30;67.86;102180.77;2104930;84;27684;-73
2022/02/12 10:50:23;;;;;;;14.87;6.50;;;;;;;5.35;68.02;102176.78;2119368;84;28678;-78
2022/02/12 10:53:25;;;;;;;28.62;15.58;;;;;;;5.38;67.40;102181.66;2119492;83;31197;-76
2022/02/12 10:56:46;;;;;;;74.58;45.88;;;;;;;5.37;67.02;102175.02;2119447;84;33136;-72
2022/02/12 10:59:49;;;;;;;16.80;7.50;;;;;;;5.29;66.61;102163.04;2119574;83;29400;-71
2022/02/12 11:02:52;;;;;;;24.67;13.15;;;;;;;5.21;66.12;102165.68;2119464;83;27690;-70
2022/02/12 11:05:55;;;;;;;17.87;8.23;;;;;;;5.15;65.73;102165.64;2121052;83;28671;-72
2022/02/12 11:08:58;;;;;;;17.48;7.22;;;;;;;5.07;65.47;102158.98;2092057;84;31046;-72
2022/02/12 11:12:05;;;;;;;28.67;16.60;;;;;;;5.06;65.91;102156.33;2118374;84;34241;-72
2022/02/12 11:15:08;;;;;;;23.40;10.70;;;;;;;5.06;65.90;102152.34;2169995;81;29380;-74
2022/02/12 11:18:15;;;;;;;13.83;5.40;;;;;;;5.05;65.42;102151.90;2133160;82;28125;-69
2022/02/12 11:21:18;;;;;;;15.50;7.65;;;;;;;5.06;65.31;102153.22;2178470;81;28660;-70
2022/02/12 11:24:35;;;;;;;13.13;5.85;;;;;;;5.04;64.88;102149.70;2173789;81;31037;-70
2022/02/12 11:27:37;;;;;;;15.03;7.00;;;;;;;5.01;64.80;102145.24;2197022;81;32836;-78
2022/02/12 11:30:45;;;;;;;18.82;8.10;;;;;;;4.96;64.75;102146.11;2196617;81;30071;-73
2022/02/12 11:34:17;;;;;;;11.95;6.60;;;;;;;4.93;64.15;102135.05;2050662;85;27728;-74
2022/02/12 11:37:19;;;;;;;13.00;3.33;;;;;;;4.86;64.08;102135.47;2050635;85;28873;-72
2022/02/12 11:40:24;;;;;;;9.38;3.00;;;;;;;4.70;62.37;102137.62;2015534;86;30967;-74
2022/02/12 11:43:38;;;;;;;34.83;15.75;;;;;;;4.60;62.95;102128.72;2036569;87;33808;-68
2022/02/12 11:46:57;;;;;;;38.48;23.83;;;;;;;4.57;63.76;102132.67;2036419;87;28768;-72
2022/02/12 11:50:12;;;;;;;47.93;28.85;;;;;;;4.52;63.88;102130.01;2066181;85;27690;-71
2022/02/12 11:53:48;;;;;;;102.72;46.55;;;;;;;4.53;63.95;102124.24;2073392;84;29559;-71
2022/02/12 11:56:51;;;;;;;29.72;14.05;;;;;;;4.57;63.65;102115.42;2073080;85;31994;-72
2022/02/12 12:00:07;;;;;;;15.28;7.65;;;;;;;4.64;63.98;102125.17;2071917;85;33746;-71
2022/02/12 12:03:10;;;;;;;10.50;4.25;;;;;;;4.71;63.89;102110.19;2071882;85;30093;-71
2022/02/12 12:06:21;;;;;;;9.85;4.05;;;;;;;4.70;62.13;102105.30;2072389;85;27743;-73
2022/02/12 12:09:22;;;;;;;10.28;6.03;;;;;;;4.65;62.22;102116.78;2072247;85;29413;-73
2022/02/12 12:12:24;;;;;;;11.95;3.42;;;;;;;4.60;62.39;102115.88;2071977;85;31030;-75
2022/02/12 12:15:26;;;;;;;12.45;4.87;;;;;;;4.54;61.75;102113.66;2071359;85;33867;-76
2022/02/12 12:18:33;;;;;;;21.48;10.05;;;;;;;4.50;62.85;102101.66;2071956;85;30312;-75
2022/02/12 12:21:36;;;;;;;14.95;5.40;;;;;;;4.50;62.63;102095.94;2068990;85;27640;-74
2022/02/12 12:24:39;;;;;;;53.68;27.95;;;;;;;4.50;62.14;102089.30;2072215;85;29492;-75
2022/02/12 12:27:41;;;;;;;11.45;5.58;;;;;;;4.47;62.30;102081.31;2072368;85;31095;-74
2022/02/12 12:30:46;;;;;;;6.08;2.83;;;;;;;4.45;61.60;102075.11;2137559;81;33022;-73
2022/02/12 12:33:48;;;;;;;7.45;3.85;;;;;;;4.39;60.80;102072.00;2166409;81;30247;-74
2022/02/12 12:36:49;;;;;;;9.93;3.30;;;;;;;4.33;60.77;102065.32;2159584;82;27715;-78
2022/02/12 12:39:52;;;;;;;13.80;4.47;;;;;;;4.28;61.10;102064.44;2158346;82;29490;-73
2022/02/12 12:43:05;;;;;;;14.78;3.72;;;;;;;4.29;61.24;102056.02;2158530;82;31055;-79
2022/02/12 12:46:07;;;;;;;7.72;2.62;;;;;;;4.29;61.86;102044.98;2158579;82;32957;-76
2022/02/12 12:49:10;;;;;;;8.90;3.12;;;;;;;4.31;61.41;102044.52;2158768;82;30114;-74
2022/02/12 12:52:16;;;;;;;4.08;2.30;;;;;;;4.29;60.51;102040.09;2158392;81;28199;-70
2022/02/12 12:55:19;;;;;;;9.15;2.65;;;;;;;4.30;61.12;102036.15;2157952;82;28628;-72
2022/02/12 12:58:21;;;;;;;50.58;32.93;;;;;;;4.31;59.66;102025.08;2159082;81;31057;-71
2022/02/12 13:01:24;;;;;;;10.50;3.83;;;;;;;4.30;59.54;102030.84;2158505;81;32917;-72
2022/02/12 13:04:26;;;;;;;7.67;3.35;;;;;;;4.25;59.48;102029.47;2157489;82;30119;-72
2022/02/12 13:07:31;;;;;;;12.03;4.50;;;;;;;4.22;59.63;102028.58;2199858;80;27710;-75
2022/02/12 13:10:36;;;;;;;11.38;2.70;;;;;;;4.19;59.59;102028.55;2200140;80;28685;-80
2022/02/12 13:13:38;;;;;;;13.35;5.87;;;;;;;4.18;59.76;102017.49;2200251;80;30210;-77
2022/02/12 13:16:45;;;;;;;11.40;7.12;;;;;;;4.19;60.06;102019.27;2198796;80;32977;-80
2022/02/12 13:19:49;;;;;;;27.02;14.87;;;;;;;4.15;59.58;102017.47;2200532;80;30012;-80
2022/02/12 13:22:57;;;;;;;35.65;17.87;;;;;;;4.11;59.74;102012.60;2179687;80;28495;-78
2022/02/12 13:25:59;;;;;;;13.70;6.20;;;;;;;4.07;59.48;102010.39;2158973;82;28711;-76
2022/02/12 13:29:01;;;;;;;17.40;8.93;;;;;;;4.03;58.79;101996.66;2158266;82;31030;-75
2022/02/12 13:32:08;;;;;;;12.68;5.50;;;;;;;4.00;59.06;102004.59;2157739;82;32971;-75
2022/02/12 13:35:20;;;;;;;25.65;13.58;;;;;;;3.94;58.49;101991.31;2157734;82;29321;-75
2022/02/12 13:38:29;;;;;;;23.38;11.22;;;;;;;3.92;58.66;101992.61;2157840;82;27600;-73
2022/02/12 13:41:33;;;;;;;12.68;4.22;;;;;;;3.90;58.97;101983.77;2158834;82;28696;-76
2022/02/12 13:44:36;;;;;;;12.30;5.25;;;;;;;3.88;58.11;101990.84;2116356;83;30999;-72
2022/02/12 13:47:38;;;;;;;26.42;14.07;;;;;;;3.84;58.42;101990.38;2162180;82;32965;-68
2022/02/12 13:50:40;;;;;;;10.28;3.98;;;;;;;3.83;58.87;101987.28;2161746;82;29311;-71
2022/02/12 13:53:48;;;;;;;9.75;3.67;;;;;;;3.80;58.06;101992.55;2131873;82;27650;-75
2022/02/12 13:56:52;;;;;;;9.90;4.92;;;;;;;3.78;58.04;101986.36;2157500;81;28676;-72
2022/02/12 13:59:54;;;;;;;8.45;2.60;;;;;;;3.74;57.81;101977.50;2174626;81;31013;-75
2022/02/12 14:02:56;;;;;;;14.50;7.90;;;;;;;3.73;57.66;101966.88;2174475;81;32943;-74
2022/02/12 14:05:57;;;;;;;6.58;2.98;;;;;;;3.73;58.63;101969.52;2174587;81;29318;-74
2022/02/12 14:09:00;;;;;;;12.45;5.08;;;;;;;3.72;57.68;101959.83;2174853;81;27704;-71